createdAt,value
2017-04-10T00:00:59.474Z,96.5
2017-04-10T00:02:12.024Z,96.5
2017-04-10T00:03:24.268Z,96.5
2017-04-10T00:04:36.808Z,96.22
2017-04-10T00:05:49.329Z,96.69
2017-04-10T00:07:01.850Z,96.69
2017-04-10T00:08:14.678Z,96.6
2017-04-10T00:09:27.192Z,96.5
2017-04-10T00:10:39.488Z,96.5
2017-04-10T00:11:52.034Z,96.41
2017-04-10T00:13:04.558Z,96.5
2017-04-10T00:14:17.099Z,96.69
2017-04-10T00:15:29.621Z,96.5
2017-04-10T00:16:42.121Z,96.79
2017-04-10T00:17:54.646Z,96.79
2017-04-10T00:19:07.416Z,96.6
2017-04-10T00:20:19.912Z,96.79
2017-04-10T00:21:32.435Z,96.69
2017-04-10T00:22:44.976Z,96.79
2017-04-10T00:23:57.205Z,96.69
2017-04-10T00:25:09.766Z,96.98
2017-04-10T00:26:21.992Z,96.69
2017-04-10T00:27:34.513Z,96.69
2017-04-10T00:28:47.027Z,96.88
2017-04-10T00:29:59.550Z,97.17
2017-04-10T00:31:11.803Z,96.88
2017-04-10T00:32:24.375Z,97.02
2017-04-10T00:33:36.917Z,96.88
2017-04-10T00:34:49.436Z,97.41
2017-04-10T00:36:01.987Z,97.31
2017-04-10T00:37:14.198Z,97.12
2017-04-10T00:38:26.701Z,97.41
2017-04-10T00:39:39.252Z,97.41
2017-04-10T00:40:52.110Z,97.31
2017-04-10T00:42:04.663Z,97.6
2017-04-10T00:43:17.231Z,97.31
2017-04-10T00:44:29.778Z,97.31
2017-04-10T00:45:42.327Z,97.22
2017-04-10T00:46:54.840Z,97.22
2017-04-10T00:48:07.364Z,97.41
2017-04-10T00:49:19.335Z,97.41
2017-04-10T00:50:31.585Z,97.31
2017-04-10T00:51:43.502Z,97.22
2017-04-10T00:52:56.006Z,97.22
2017-04-10T00:54:08.541Z,97.12
2017-04-10T00:55:21.048Z,97.69
2017-04-10T00:56:33.590Z,97.88
2017-04-10T00:57:45.807Z,97.78
2017-04-10T00:58:58.325Z,98.07
2017-04-10T01:00:10.844Z,97.88
2017-04-10T01:01:23.091Z,97.78
2017-04-10T01:02:35.912Z,98.16
2017-04-10T01:03:48.166Z,97.97
2017-04-10T01:05:00.761Z,98.35
2017-04-10T01:06:13.300Z,98.26
2017-04-10T01:07:25.806Z,98.54
2017-04-10T01:08:38.351Z,98.16
2017-04-10T01:09:50.870Z,98.26
2017-04-10T01:11:03.415Z,98.07
2017-04-10T01:12:15.964Z,98.73
2017-04-10T01:13:28.753Z,98.83
2017-04-10T01:14:40.959Z,98.07
2017-04-10T01:15:53.499Z,98.16
2017-04-10T01:17:06.045Z,98.16
2017-04-10T01:18:18.587Z,98.83
2017-04-10T01:19:31.109Z,98.73
2017-04-10T01:20:43.350Z,98.83
2017-04-10T01:21:55.880Z,98.83
2017-04-10T01:23:08.105Z,98.64
2017-04-10T01:24:20.349Z,98.64
2017-04-10T01:25:32.873Z,98.45
2017-04-10T01:26:45.437Z,98.54
2017-04-10T01:27:57.662Z,98.45
2017-04-10T01:29:10.209Z,99.02
2017-04-10T01:30:23.017Z,98.92
2017-04-10T01:31:35.575Z,98.73
2017-04-10T01:32:48.147Z,98.92
2017-04-10T01:34:00.680Z,99.11
2017-04-10T01:35:13.205Z,99.02
2017-04-10T01:36:25.736Z,98.83
2017-04-10T01:37:37.948Z,99.11
2017-04-10T01:38:50.497Z,98.83
2017-04-10T01:40:02.999Z,98.73
2017-04-10T01:41:15.206Z,98.73
2017-04-10T01:42:27.427Z,99.02
2017-04-10T01:43:39.934Z,98.83
2017-04-10T01:44:52.443Z,98.73
2017-04-10T01:46:05.222Z,98.92
2017-04-10T01:47:17.742Z,98.83
2017-04-10T01:48:29.971Z,98.83
2017-04-10T01:49:42.510Z,98.54
2017-04-10T01:50:55.058Z,99.02
2017-04-10T01:52:07.921Z,98.92
2017-04-10T01:53:20.475Z,99.3
2017-04-10T01:54:32.993Z,99.02
2017-04-10T01:55:45.510Z,99.11
2017-04-10T01:56:58.035Z,99.11
2017-04-10T01:58:10.549Z,99.11
2017-04-10T01:59:23.097Z,99.11
2017-04-10T02:00:35.323Z,99.02
2017-04-10T02:01:47.836Z,99.11
2017-04-10T02:03:00.339Z,99.02
2017-04-10T02:04:12.889Z,98.92
2017-04-10T02:05:25.407Z,99.02
2017-04-10T02:06:37.644Z,99.11
2017-04-10T02:07:49.866Z,99.02
2017-04-10T02:09:02.362Z,99.77
2017-04-10T02:10:14.890Z,99.11
2017-04-10T02:11:27.436Z,99.58
2017-04-10T02:12:39.958Z,99.68
2017-04-10T02:13:52.778Z,99.68
2017-04-10T02:15:05.302Z,99.49
2017-04-10T02:16:17.544Z,99.58
2017-04-10T02:17:29.762Z,99.58
2017-04-10T02:18:42.280Z,99.77
2017-04-10T02:19:54.824Z,99.4
2017-04-10T02:21:07.346Z,98.83
2017-04-10T02:22:19.840Z,99.58
2017-04-10T02:23:31.791Z,99.58
2017-04-10T02:24:44.319Z,99.58
2017-04-10T02:25:56.879Z,99.68
2017-04-10T02:27:09.399Z,99.4
2017-04-10T02:28:21.625Z,99.68
2017-04-10T02:29:34.172Z,99.49
2017-04-10T02:30:46.396Z,99.21
2017-04-10T02:31:58.960Z,99.68
2017-04-10T02:33:11.484Z,99.58
2017-04-10T02:34:24.009Z,99.4
2017-04-10T02:35:36.546Z,99.68
2017-04-10T02:36:48.752Z,99.21
2017-04-10T02:38:00.988Z,99.58
2017-04-10T02:39:13.513Z,99.21
2017-04-10T02:40:26.067Z,99.21
2017-04-10T02:41:38.604Z,99.58
2017-04-10T02:42:51.135Z,99.58
2017-04-10T02:44:03.668Z,99.68
2017-04-10T02:45:15.896Z,99.68
2017-04-10T02:46:28.095Z,99.58
2017-04-10T02:47:40.607Z,99.68
2017-04-10T02:48:53.133Z,99.68
2017-04-10T02:50:05.648Z,99.58
2017-04-10T02:51:18.176Z,99.68
2017-04-10T02:52:30.689Z,99.58
2017-04-10T02:53:43.199Z,99.3
2017-04-10T02:54:55.763Z,99.68
2017-04-10T02:56:08.281Z,99.58
2017-04-10T02:57:20.810Z,99.68
2017-04-10T02:58:33.349Z,99.58
2017-04-10T02:59:45.879Z,99.54
2017-04-10T03:00:58.411Z,99.35
2017-04-10T03:02:10.606Z,99.4
2017-04-10T03:03:22.827Z,99.77
2017-04-10T03:04:35.331Z,99.63
2017-04-10T03:05:47.873Z,99.68
2017-04-10T03:07:00.119Z,99.99
2017-04-10T03:08:12.672Z,99.73
2017-04-10T03:09:25.225Z,99.99
2017-04-10T03:10:37.760Z,99.99
2017-04-10T03:11:50.301Z,99.73
2017-04-10T03:13:02.532Z,99.99
2017-04-10T03:14:14.753Z,99.99
2017-04-10T03:15:26.961Z,99.91
2017-04-10T03:16:39.193Z,99.99
2017-04-10T03:17:51.690Z,99.99
2017-04-10T03:19:03.935Z,99.99
2017-04-10T03:20:16.456Z,99.99
2017-04-10T03:21:28.974Z,99.82
2017-04-10T03:22:41.198Z,99.99
2017-04-10T03:23:53.747Z,99.99
2017-04-10T03:25:06.262Z,99.99
2017-04-10T03:26:18.786Z,99.99
2017-04-10T03:27:31.028Z,99.99
2017-04-10T03:28:43.251Z,99.99
2017-04-10T03:29:55.787Z,99.99
2017-04-10T03:31:08.022Z,99.99
2017-04-10T03:32:20.540Z,99.99
2017-04-10T03:33:32.458Z,99.99
2017-04-10T03:34:44.674Z,99.99
2017-04-10T03:35:57.218Z,99.99
2017-04-10T03:37:09.770Z,99.99
2017-04-10T03:38:22.302Z,99.99
2017-04-10T03:39:34.834Z,99.99
2017-04-10T03:40:47.386Z,99.99
2017-04-10T03:41:59.922Z,99.99
2017-04-10T03:43:11.846Z,99.99
2017-04-10T03:44:24.396Z,99.99
2017-04-10T03:45:36.894Z,99.99
2017-04-10T03:46:49.414Z,99.99
2017-04-10T03:48:01.938Z,99.99
2017-04-10T03:49:14.150Z,99.99
2017-04-10T03:50:26.678Z,99.99
2017-04-10T03:51:38.904Z,99.99
2017-04-10T03:52:51.412Z,99.99
2017-04-10T03:54:03.934Z,99.99
2017-04-10T03:55:16.477Z,99.99
2017-04-10T03:56:28.676Z,99.99
2017-04-10T03:57:41.198Z,99.99
2017-04-10T03:58:53.743Z,99.99
2017-04-10T04:00:06.296Z,99.99
2017-04-10T04:01:18.834Z,99.99
2017-04-10T04:02:31.360Z,99.99
2017-04-10T04:03:43.598Z,99.99
2017-04-10T04:04:56.103Z,99.99
2017-04-10T04:06:08.626Z,99.99
2017-04-10T04:07:21.461Z,99.99
2017-04-10T04:08:34.024Z,99.99
2017-04-10T04:09:46.539Z,99.99
2017-04-10T04:10:59.077Z,99.99
2017-04-10T04:12:11.302Z,99.99
2017-04-10T04:13:23.819Z,99.99
2017-04-10T04:14:36.372Z,99.99
2017-04-10T04:15:48.890Z,99.99
2017-04-10T04:17:01.387Z,99.99
2017-04-10T04:18:13.910Z,99.99
2017-04-10T04:19:26.431Z,99.99
2017-04-10T04:20:38.951Z,99.99
2017-04-10T04:21:51.226Z,99.99
2017-04-10T04:23:03.757Z,99.99
2017-04-10T04:24:16.316Z,99.99
2017-04-10T04:25:28.836Z,99.99
2017-04-10T04:26:41.375Z,99.99
2017-04-10T04:27:53.901Z,99.99
2017-04-10T04:29:06.423Z,99.99
2017-04-10T04:30:18.933Z,99.99
2017-04-10T04:31:31.162Z,99.99
2017-04-10T04:32:43.736Z,99.99
2017-04-10T04:33:56.295Z,99.99
2017-04-10T04:35:08.525Z,99.99
2017-04-10T04:36:21.049Z,99.99
2017-04-10T04:37:33.586Z,99.99
2017-04-10T04:38:46.111Z,99.99
2017-04-10T04:39:58.625Z,99.99
2017-04-10T04:41:11.150Z,99.99
2017-04-10T04:42:23.667Z,99.99
2017-04-10T04:43:36.191Z,99.99
2017-04-10T04:44:48.744Z,99.99
2017-04-10T04:46:01.283Z,99.99
2017-04-10T04:47:13.811Z,99.99
2017-04-10T04:48:26.309Z,99.99
2017-04-10T04:49:38.821Z,99.99
2017-04-10T04:50:51.613Z,99.99
2017-04-10T04:52:04.139Z,99.99
2017-04-10T04:53:16.384Z,99.99
2017-04-10T04:54:28.913Z,99.99
2017-04-10T04:55:41.130Z,99.99
2017-04-10T04:56:53.676Z,99.99
2017-04-10T04:58:06.214Z,99.99
2017-04-10T04:59:18.723Z,99.99
2017-04-10T05:00:31.263Z,99.99
2017-04-10T05:01:44.027Z,99.99
2017-04-10T05:02:56.584Z,99.99
2017-04-10T05:04:09.147Z,99.99
2017-04-10T05:05:21.364Z,99.99
2017-04-10T05:06:33.896Z,99.99
2017-04-10T05:07:46.413Z,99.99
2017-04-10T05:08:58.909Z,99.99
2017-04-10T05:10:11.426Z,99.99
2017-04-10T05:11:23.963Z,99.99
2017-04-10T05:12:36.791Z,99.99
2017-04-10T05:13:49.323Z,99.99
2017-04-10T05:15:01.868Z,99.99
2017-04-10T05:16:14.406Z,99.99
2017-04-10T05:17:26.932Z,99.99
2017-04-10T05:18:39.444Z,99.99
2017-04-10T05:19:51.665Z,99.99
2017-04-10T05:21:04.169Z,99.99
2017-04-10T05:22:16.718Z,99.99
2017-04-10T05:23:29.503Z,99.99
2017-04-10T05:24:42.036Z,99.99
2017-04-10T05:25:54.552Z,99.99
2017-04-10T05:27:07.100Z,99.99
2017-04-10T05:28:19.298Z,99.99
2017-04-10T05:29:31.532Z,99.99
2017-04-10T05:30:44.086Z,99.99
2017-04-10T05:31:56.606Z,99.99
2017-04-10T05:33:08.553Z,99.99
2017-04-10T05:34:20.469Z,99.99
2017-04-10T05:35:33.018Z,99.99
2017-04-10T05:36:45.566Z,99.99
2017-04-10T05:37:58.090Z,99.99
2017-04-10T05:39:10.627Z,99.99
2017-04-10T05:40:23.149Z,99.99
2017-04-10T05:41:35.705Z,99.99
2017-04-10T05:42:48.237Z,99.99
2017-04-10T05:44:00.741Z,99.99
2017-04-10T05:45:12.970Z,99.99
2017-04-10T05:46:25.482Z,99.99
2017-04-10T05:47:38.032Z,99.99
2017-04-10T05:48:50.567Z,99.99
2017-04-10T05:50:03.118Z,99.99
2017-04-10T05:51:15.366Z,99.99
2017-04-10T05:52:27.905Z,99.99
2017-04-10T05:53:40.439Z,99.99
2017-04-10T05:54:52.972Z,99.99
2017-04-10T05:56:05.493Z,99.99
2017-04-10T05:57:17.721Z,99.99
2017-04-10T05:58:30.247Z,99.99
2017-04-10T05:59:42.156Z,99.99
2017-04-10T06:00:54.676Z,99.99
2017-04-10T06:02:07.251Z,99.99
2017-04-10T06:03:19.775Z,99.99
2017-04-10T06:04:32.268Z,99.99
2017-04-10T06:05:44.792Z,99.99
2017-04-10T06:06:57.313Z,99.99
2017-04-10T06:08:09.855Z,99.99
2017-04-10T06:09:21.805Z,99.36
2017-04-10T06:10:34.318Z,99.5
2017-04-10T06:11:46.575Z,99.5
2017-04-10T06:12:59.143Z,98.65
2017-04-10T06:14:11.686Z,98.93
2017-04-10T06:15:24.213Z,98.27
2017-04-10T06:16:36.759Z,98.46
2017-04-10T06:17:49.244Z,98.46
2017-04-10T06:19:01.774Z,97.69
2017-04-10T06:20:14.319Z,97.6
2017-04-10T06:21:26.844Z,97.41
2017-04-10T06:22:39.077Z,97.65
2017-04-10T06:23:51.324Z,97.36
2017-04-10T06:25:03.851Z,97.08
2017-04-10T06:26:16.076Z,96.98
2017-04-10T06:27:28.622Z,96.6
2017-04-10T06:28:41.146Z,96.31
2017-04-10T06:29:53.366Z,96.31
2017-04-10T06:31:05.582Z,96.03
2017-04-10T06:32:18.121Z,96.12
2017-04-10T06:33:30.644Z,95.6
2017-04-10T06:34:43.187Z,95.79
2017-04-10T06:35:55.692Z,95.79
2017-04-10T06:37:07.936Z,95.41
2017-04-10T06:38:20.478Z,95.08
2017-04-10T06:39:33.007Z,94.79
2017-04-10T06:40:44.967Z,93.93
2017-04-10T06:41:57.499Z,93.93
2017-04-10T06:43:09.716Z,93.22
2017-04-10T06:44:22.262Z,92.74
2017-04-10T06:45:34.800Z,92.74
2017-04-10T06:46:47.374Z,92.32
2017-04-10T06:47:59.920Z,91.83
2017-04-10T06:49:12.466Z,90.83
2017-04-10T06:50:25.010Z,89.88
2017-04-10T06:51:37.533Z,89.73
2017-04-10T06:52:50.086Z,89.25
2017-04-10T06:54:02.621Z,88.15
2017-04-10T06:55:14.846Z,87.68
2017-04-10T06:56:27.374Z,87.15
2017-04-10T06:57:39.895Z,86.38
2017-04-10T06:58:52.437Z,85.47
2017-04-10T07:00:04.958Z,85.18
2017-04-10T07:01:17.500Z,84.75
2017-04-10T07:02:30.050Z,83.6
2017-04-10T07:03:42.563Z,83.16
2017-04-10T07:04:54.788Z,82.78
2017-04-10T07:06:07.342Z,81.96
2017-04-10T07:07:19.909Z,82.06
2017-04-10T07:08:32.457Z,81
2017-04-10T07:09:44.697Z,80.9
2017-04-10T07:10:57.222Z,80.81
2017-04-10T07:12:09.768Z,80.81
2017-04-10T07:13:22.313Z,81
2017-04-10T07:14:34.851Z,80.71
2017-04-10T07:15:47.051Z,80.43
2017-04-10T07:16:59.593Z,80.81
2017-04-10T07:18:12.113Z,80.81
2017-04-10T07:19:24.039Z,81.2
2017-04-10T07:20:36.594Z,81.29
2017-04-10T07:21:49.115Z,81.48
2017-04-10T07:23:01.909Z,80.9
2017-04-10T07:24:13.826Z,81.38
2017-04-10T07:25:26.368Z,81.29
2017-04-10T07:26:38.910Z,81.29
2017-04-10T07:27:51.467Z,80.81
2017-04-10T07:29:04.035Z,80.81
2017-04-10T07:30:16.586Z,80.37
2017-04-10T07:31:29.147Z,79.99
2017-04-10T07:32:41.694Z,80.18
2017-04-10T07:33:54.236Z,79.7
2017-04-10T07:35:06.769Z,79.6
2017-04-10T07:36:19.303Z,79.36
2017-04-10T07:37:31.834Z,78.69
2017-04-10T07:38:44.370Z,78.15
2017-04-10T07:39:56.616Z,78.44
2017-04-10T07:41:08.874Z,77.86
2017-04-10T07:42:21.444Z,77.61
2017-04-10T07:43:34.025Z,76.75
2017-04-10T07:44:46.538Z,76.98
2017-04-10T07:45:59.099Z,76.79
2017-04-10T07:47:11.630Z,75.96
2017-04-10T07:48:24.160Z,75.52
2017-04-10T07:49:36.357Z,74.46
2017-04-10T07:50:48.879Z,74.46
2017-04-10T07:52:01.431Z,74.02
2017-04-10T07:53:13.378Z,73.73
2017-04-10T07:54:25.298Z,73.54
2017-04-10T07:55:37.591Z,73.47
2017-04-10T07:56:50.141Z,72.52
2017-04-10T07:58:02.690Z,72.13
2017-04-10T07:59:15.232Z,71.75
2017-04-10T08:00:27.797Z,71.26
2017-04-10T08:01:40.047Z,70.59
2017-04-10T08:02:52.623Z,71.17
2017-04-10T08:04:05.171Z,70.88
2017-04-10T08:05:17.715Z,70.84
2017-04-10T08:06:30.258Z,70.84
2017-04-10T08:07:42.825Z,71.33
2017-04-10T08:08:55.375Z,71.71
2017-04-10T08:10:07.291Z,71.29
2017-04-10T08:11:19.809Z,71.67
2017-04-10T08:12:32.038Z,72.06
2017-04-10T08:13:44.589Z,72.34
2017-04-10T08:14:56.854Z,72.64
2017-04-10T08:16:09.070Z,73.31
2017-04-10T08:17:21.626Z,73.18
2017-04-10T08:18:34.189Z,73.37
2017-04-10T08:19:46.414Z,73.37
2017-04-10T08:20:58.334Z,73.37
2017-04-10T08:22:10.874Z,73.37
2017-04-10T08:23:23.396Z,73.75
2017-04-10T08:24:35.922Z,73.75
2017-04-10T08:25:48.460Z,74.13
2017-04-10T08:27:00.988Z,74.13
2017-04-10T08:28:13.239Z,73.33
2017-04-10T08:29:25.781Z,73.33
2017-04-10T08:30:38.331Z,74.01
2017-04-10T08:31:50.547Z,73.52
2017-04-10T08:33:02.840Z,73.33
2017-04-10T08:34:15.089Z,72.95
2017-04-10T08:35:27.602Z,71.7
2017-04-10T08:36:40.140Z,71.55
2017-04-10T08:37:52.682Z,72.02
2017-04-10T08:39:05.140Z,72.75
2017-04-10T08:40:17.398Z,72.47
2017-04-10T08:41:29.933Z,72.69
2017-04-10T08:42:42.453Z,71.45
2017-04-10T08:43:54.977Z,72.02
2017-04-10T08:45:07.234Z,71.55
2017-04-10T08:46:19.770Z,71.16
2017-04-10T08:47:32.341Z,71.35
2017-04-10T08:48:44.871Z,70.49
2017-04-10T08:49:56.829Z,69.91
2017-04-10T08:51:09.350Z,68.47
2017-04-10T08:52:21.585Z,68.95
2017-04-10T08:53:33.824Z,68.66
2017-04-10T08:54:46.020Z,67.41
2017-04-10T08:55:58.533Z,67.22
2017-04-10T08:57:11.082Z,66.93
2017-04-10T08:58:23.612Z,67.25
2017-04-10T08:59:35.528Z,67.07
2017-04-10T09:00:48.096Z,67.07
2017-04-10T09:02:00.363Z,66.87
2017-04-10T09:03:12.898Z,67.64
2017-04-10T09:04:25.433Z,67.16
2017-04-10T09:05:37.978Z,67.25
2017-04-10T09:06:50.258Z,67.93
2017-04-10T09:08:02.767Z,68.21
2017-04-10T09:09:15.295Z,67.16
2017-04-10T09:10:27.818Z,65.81
2017-04-10T09:11:40.363Z,64.85
2017-04-10T09:12:52.615Z,65.43
2017-04-10T09:14:04.854Z,65.62
2017-04-10T09:15:17.101Z,65.72
2017-04-10T09:16:29.675Z,65.91
2017-04-10T09:17:42.213Z,66.04
2017-04-10T09:18:54.437Z,65.43
2017-04-10T09:20:06.090Z,66.33
2017-04-10T09:21:18.649Z,67
2017-04-10T09:22:30.905Z,65.94
2017-04-10T09:23:43.472Z,66.23
2017-04-10T09:24:56.022Z,66.33
2017-04-10T09:26:08.557Z,66.33
2017-04-10T09:27:21.084Z,63.92
2017-04-10T09:28:33.023Z,62.38
2017-04-10T09:29:45.230Z,62.29
2017-04-10T09:30:57.776Z,62.38
2017-04-10T09:32:10.019Z,63.76
2017-04-10T09:33:21.971Z,62.51
2017-04-10T09:34:33.916Z,60.39
2017-04-10T09:35:46.456Z,61.07
2017-04-10T09:36:59.007Z,61.16
2017-04-10T09:38:11.248Z,61.36
2017-04-10T09:39:23.515Z,61.26
2017-04-10T09:40:35.439Z,60.97
2017-04-10T09:41:47.935Z,60.78
2017-04-10T09:42:59.569Z,60.69
2017-04-10T09:44:12.122Z,60.72
2017-04-10T09:45:24.094Z,60.72
2017-04-10T09:46:36.619Z,61.77
2017-04-10T09:47:48.557Z,62.26
2017-04-10T09:49:00.788Z,62.45
2017-04-10T09:50:12.749Z,60.91
2017-04-10T09:51:24.970Z,60.33
2017-04-10T09:52:37.499Z,62.06
2017-04-10T09:53:49.748Z,62.16
2017-04-10T09:55:01.983Z,61.42
2017-04-10T09:56:13.915Z,61.8
2017-04-10T09:57:25.853Z,62.19
2017-04-10T09:58:37.807Z,62.09
2017-04-10T09:59:49.474Z,60.84
2017-04-10T10:01:02.265Z,59.59
2017-04-10T10:02:13.916Z,59.59
2017-04-10T10:03:26.183Z,59.2
2017-04-10T10:04:38.708Z,60.1
2017-04-10T10:05:50.947Z,60.3
2017-04-10T10:07:02.898Z,59.91
2017-04-10T10:08:14.845Z,61.35
2017-04-10T10:09:27.359Z,61.25
2017-04-10T10:10:39.583Z,60.3
2017-04-10T10:11:51.839Z,59.52
2017-04-10T10:13:03.780Z,59.81
2017-04-10T10:14:16.317Z,59.23
2017-04-10T10:15:28.539Z,59.62
2017-04-10T10:16:40.762Z,59.81
2017-04-10T10:17:52.729Z,59.55
2017-04-10T10:19:04.361Z,61.29
2017-04-10T10:20:16.297Z,59.94
2017-04-10T10:21:28.847Z,58.88
2017-04-10T10:22:41.114Z,58.59
2017-04-10T10:23:53.671Z,58.52
2017-04-10T10:25:05.906Z,58.04
2017-04-10T10:26:18.489Z,58.72
2017-04-10T10:27:30.448Z,59
2017-04-10T10:28:42.404Z,57.75
2017-04-10T10:29:54.951Z,57.85
2017-04-10T10:31:07.489Z,57.46
2017-04-10T10:32:19.432Z,57.07
2017-04-10T10:33:31.956Z,57.85
2017-04-10T10:34:44.510Z,57.49
2017-04-10T10:35:56.769Z,56.62
2017-04-10T10:37:08.116Z,55.94
2017-04-10T10:38:20.023Z,55.78
2017-04-10T10:39:32.569Z,54.72
2017-04-10T10:40:44.788Z,54.72
2017-04-10T10:41:56.426Z,54.33
2017-04-10T10:43:08.699Z,54.33
2017-04-10T10:44:21.274Z,53.88
2017-04-10T10:45:33.818Z,54.46
2017-04-10T10:46:45.786Z,54.46
2017-04-10T10:47:58.054Z,54.36
2017-04-10T10:49:09.977Z,54.49
2017-04-10T10:50:21.932Z,54.58
2017-04-10T10:51:33.869Z,54.58
2017-04-10T10:52:45.797Z,54.68
2017-04-10T10:53:57.743Z,54
2017-04-10T10:55:09.987Z,53.64
2017-04-10T10:56:22.242Z,53.06
2017-04-10T10:57:34.471Z,53.16
2017-04-10T10:58:46.695Z,52.87
2017-04-10T10:59:59.250Z,52.89
2017-04-10T11:01:10.915Z,52.7
2017-04-10T11:02:23.166Z,52.51
2017-04-10T11:03:35.729Z,52.7
2017-04-10T11:04:47.404Z,52.61
2017-04-10T11:05:59.953Z,52.51
2017-04-10T11:07:12.514Z,52.31
2017-04-10T11:08:24.445Z,52.31
2017-04-10T11:09:36.666Z,52.02
2017-04-10T11:10:48.890Z,52.51
2017-04-10T11:12:00.229Z,52.12
2017-04-10T11:13:12.804Z,52.05
2017-04-10T11:14:25.364Z,52.7
2017-04-10T11:15:37.913Z,52.44
2017-04-10T11:16:50.167Z,52.24
2017-04-10T11:18:02.415Z,51.66
2017-04-10T11:19:14.955Z,52.34
2017-04-10T11:20:26.897Z,51.86
2017-04-10T11:21:38.841Z,51.86
2017-04-10T11:22:49.893Z,51.76
2017-04-10T11:24:01.882Z,52.24
2017-04-10T11:25:14.135Z,52.63
2017-04-10T11:26:26.409Z,52.7
2017-04-10T11:27:38.699Z,53.57
2017-04-10T11:28:51.269Z,53.64
2017-04-10T11:30:03.522Z,54.22
2017-04-10T11:31:15.442Z,54.39
2017-04-10T11:32:27.410Z,54.19
2017-04-10T11:33:39.348Z,54.55
2017-04-10T11:34:51.606Z,54.94
2017-04-10T11:36:03.902Z,55.33
2017-04-10T11:37:15.869Z,55.88
2017-04-10T11:38:28.116Z,55.88
2017-04-10T11:39:40.357Z,56.36
2017-04-10T11:40:52.627Z,56.74
2017-04-10T11:42:04.899Z,56.46
2017-04-10T11:43:17.474Z,56.56
2017-04-10T11:44:29.723Z,56.74
2017-04-10T11:45:42.291Z,56.26
2017-04-10T11:46:54.832Z,56.07
2017-04-10T11:48:07.074Z,55.49
2017-04-10T11:49:19.299Z,55.49
2017-04-10T11:50:31.872Z,56
2017-04-10T11:51:43.821Z,55.52
2017-04-10T11:52:56.346Z,55.2
2017-04-10T11:54:08.293Z,54.82
2017-04-10T11:55:20.533Z,55.4
2017-04-10T11:56:33.082Z,55.78
2017-04-10T11:57:45.324Z,55.98
2017-04-10T11:58:57.888Z,55.98
2017-04-10T12:00:10.437Z,56.36
2017-04-10T12:01:22.741Z,55.98
2017-04-10T12:02:35.026Z,55.88
2017-04-10T12:03:47.549Z,56.16
2017-04-10T12:04:59.803Z,55.88
2017-04-10T12:06:12.339Z,56.26
2017-04-10T12:07:24.895Z,56.72
2017-04-10T12:08:37.456Z,56.43
2017-04-10T12:09:49.707Z,56.72
2017-04-10T12:11:02.283Z,57.01
2017-04-10T12:12:14.529Z,57.65
2017-04-10T12:13:27.066Z,57.85
2017-04-10T12:14:39.570Z,57.94
2017-04-10T12:15:51.831Z,58.4
2017-04-10T12:17:04.031Z,58.4
2017-04-10T12:18:16.581Z,58.97
2017-04-10T12:19:28.827Z,59.23
2017-04-10T12:20:41.376Z,59.43
2017-04-10T12:21:53.289Z,60
2017-04-10T12:23:05.834Z,60.58
2017-04-10T12:24:18.077Z,60.2
2017-04-10T12:25:30.327Z,60.65
2017-04-10T12:26:42.570Z,61.13
2017-04-10T12:27:55.115Z,61.04
2017-04-10T12:29:07.639Z,61.19
2017-04-10T12:30:19.896Z,61.58
2017-04-10T12:31:32.437Z,61.39
2017-04-10T12:32:44.677Z,62.06
2017-04-10T12:33:57.219Z,62.23
2017-04-10T12:35:09.468Z,62.71
2017-04-10T12:36:21.397Z,63.28
2017-04-10T12:37:34.258Z,63.18
2017-04-10T12:38:46.831Z,62.9
2017-04-10T12:39:59.378Z,62.51
2017-04-10T12:41:11.320Z,62.48
2017-04-10T12:42:23.851Z,63.25
2017-04-10T12:43:36.395Z,63.35
2017-04-10T12:44:48.608Z,63.64
2017-04-10T12:46:00.836Z,64.47
2017-04-10T12:47:13.386Z,65.43
2017-04-10T12:48:25.631Z,64.95
2017-04-10T12:49:38.167Z,65.62
2017-04-10T12:50:50.724Z,66.2
2017-04-10T12:52:02.966Z,66.1
2017-04-10T12:53:15.482Z,66.58
2017-04-10T12:54:28.014Z,66.49
2017-04-10T12:55:40.257Z,66.77
2017-04-10T12:56:52.804Z,66.74
2017-04-10T12:58:05.362Z,66.84
2017-04-10T12:59:17.884Z,66.74
2017-04-10T13:00:30.391Z,66.84
2017-04-10T13:01:42.938Z,66.74
2017-04-10T13:02:55.487Z,66.64
2017-04-10T13:04:07.717Z,67.25
2017-04-10T13:05:19.984Z,66.68
2017-04-10T13:06:32.516Z,65.43
2017-04-10T13:07:44.459Z,63.96
2017-04-10T13:08:57.011Z,63.57
2017-04-10T13:10:09.547Z,63.38
2017-04-10T13:11:21.511Z,62.42
2017-04-10T13:12:34.051Z,62.32
2017-04-10T13:13:46.293Z,63.48
2017-04-10T13:14:58.859Z,63.09
2017-04-10T13:16:11.110Z,63.48
2017-04-10T13:17:23.358Z,64.05
2017-04-10T13:18:35.900Z,64.31
2017-04-10T13:19:48.168Z,64.25
2017-04-10T13:21:00.410Z,64.22
2017-04-10T13:22:12.931Z,64.79
2017-04-10T13:23:25.453Z,64.98
2017-04-10T13:24:37.998Z,64.89
2017-04-10T13:25:50.558Z,64.4
2017-04-10T13:27:02.789Z,63.35
2017-04-10T13:28:15.372Z,63.73
2017-04-10T13:29:27.610Z,63.45
2017-04-10T13:30:39.589Z,63.64
2017-04-10T13:31:52.158Z,63.25
2017-04-10T13:33:04.097Z,63.35
2017-04-10T13:34:16.069Z,62.96
2017-04-10T13:35:28.018Z,63.16
2017-04-10T13:36:39.968Z,63.54
2017-04-10T13:37:52.203Z,64.59
2017-04-10T13:39:04.749Z,65.84
2017-04-10T13:40:16.969Z,65.94
2017-04-10T13:41:29.198Z,66.19
2017-04-10T13:42:41.115Z,66.86
2017-04-10T13:43:53.719Z,67.83
2017-04-10T13:45:06.286Z,67.83
2017-04-10T13:46:18.807Z,67.79
2017-04-10T13:47:30.748Z,68.75
2017-04-10T13:48:42.695Z,69.62
2017-04-10T13:49:55.263Z,69.42
2017-04-10T13:51:07.765Z,69.33
2017-04-10T13:52:19.404Z,68.72
2017-04-10T13:53:31.635Z,69.58
2017-04-10T13:54:43.850Z,69.29
2017-04-10T13:55:55.806Z,69.29
2017-04-10T13:57:08.322Z,69.87
2017-04-10T13:58:20.234Z,69.77
2017-04-10T13:59:32.766Z,70.06
2017-04-10T14:00:45.028Z,69.68
2017-04-10T14:01:56.981Z,70.06
2017-04-10T14:03:09.218Z,69.96
2017-04-10T14:04:21.449Z,69.93
2017-04-10T14:05:33.984Z,70.12
2017-04-10T14:06:45.613Z,70.31
2017-04-10T14:07:57.559Z,70.89
2017-04-10T14:09:09.505Z,70.5
2017-04-10T14:10:21.454Z,70.41
2017-04-10T14:11:33.667Z,70.12
2017-04-10T14:12:46.223Z,70.21
2017-04-10T14:13:58.743Z,70.98
2017-04-10T14:15:10.969Z,70.21
2017-04-10T14:16:23.531Z,70.12
2017-04-10T14:17:36.082Z,70.12
2017-04-10T14:18:48.615Z,70.5
2017-04-10T14:20:01.177Z,70.7
2017-04-10T14:21:13.793Z,70.5
2017-04-10T14:22:26.331Z,70.21
2017-04-10T14:23:38.902Z,69.74
2017-04-10T14:24:51.129Z,69.26
2017-04-10T14:26:03.448Z,68.78
2017-04-10T14:27:15.693Z,69.32
2017-04-10T14:28:27.617Z,69.7
2017-04-10T14:29:40.179Z,69.6
2017-04-10T14:30:52.398Z,69.32
2017-04-10T14:32:04.620Z,69.89
2017-04-10T14:33:16.844Z,70.09
2017-04-10T14:34:28.798Z,69.99
2017-04-10T14:35:41.340Z,70.28
2017-04-10T14:36:53.565Z,69.42
2017-04-10T14:38:06.090Z,70.18
2017-04-10T14:39:18.349Z,70.09
2017-04-10T14:40:30.899Z,70.09
2017-04-10T14:41:43.426Z,70.15
2017-04-10T14:42:55.958Z,70.91
2017-04-10T14:44:08.507Z,70.72
2017-04-10T14:45:20.175Z,70.43
2017-04-10T14:46:32.703Z,70.62
2017-04-10T14:47:45.220Z,70.81
2017-04-10T14:48:57.773Z,70.91
2017-04-10T14:50:10.308Z,71.01
2017-04-10T14:51:22.533Z,71.39
2017-04-10T14:52:35.058Z,71.07
2017-04-10T14:53:47.629Z,70.87
2017-04-10T14:55:00.220Z,71.36
2017-04-10T14:56:12.774Z,70.97
2017-04-10T14:57:25.326Z,70.87
2017-04-10T14:58:37.855Z,71.45
2017-04-10T14:59:50.404Z,71.55
2017-04-10T15:01:02.973Z,71.16
2017-04-10T15:02:15.192Z,71.83
2017-04-10T15:03:27.721Z,72.5
2017-04-10T15:04:39.360Z,71.99
2017-04-10T15:05:51.880Z,72.31
2017-04-10T15:07:04.389Z,72.12
2017-04-10T15:08:16.955Z,71.64
2017-04-10T15:09:29.517Z,71.55
2017-04-10T15:10:42.043Z,71.64
2017-04-10T15:11:54.618Z,71.45
2017-04-10T15:13:07.167Z,71.26
2017-04-10T15:14:19.725Z,71.55
2017-04-10T15:15:31.947Z,71.73
2017-04-10T15:16:44.478Z,71.64
2017-04-10T15:17:57.040Z,71.45
2017-04-10T15:19:09.572Z,71.07
2017-04-10T15:20:22.089Z,71.55
2017-04-10T15:21:34.630Z,71.73
2017-04-10T15:22:47.202Z,71.26
2017-04-10T15:23:59.730Z,71.55
2017-04-10T15:25:12.269Z,71.55
2017-04-10T15:26:24.843Z,71.83
2017-04-10T15:27:36.768Z,71.7
2017-04-10T15:28:49.335Z,71.8
2017-04-10T15:30:01.860Z,72.31
2017-04-10T15:31:14.111Z,72.47
2017-04-10T15:32:26.665Z,72.47
2017-04-10T15:33:39.187Z,72.56
2017-04-10T15:34:51.408Z,72.66
2017-04-10T15:36:03.957Z,72.98